Time;durP1;ratioP1;P1;durP2;ratioP2;P2;SDS_P1;SDS_P2;PMS_P1;PMS_P2;Temp;Humidity;BMP_temperature;BMP_pressure;BME280_temperature;BME280_humidity;BME280_pressure;Samples;Min_cycle;Max_cycle;Signal;HPM_P1;HPM_P2
2023/10/28 00:01:40;;;;;;;1.90;0.80;;;10.90;99.90;;;11.50;100.00;96294.84;5027976;28;20472;-78
2023/10/28 00:04:10;;;;;;;1.00;0.80;;;10.90;99.90;;;11.45;100.00;96284.31;5027504;28;20545;-78
2023/10/28 00:06:42;;;;;;;1.37;1.00;;;10.90;99.90;;;11.46;100.00;96297.13;5026051;28;20466;-78
2023/10/28 00:09:12;;;;;;;1.50;0.87;;;10.90;99.90;;;11.44;100.00;96291.34;5026784;28;20463;-77
2023/10/28 00:11:42;;;;;;;1.50;0.90;;;10.90;99.90;;;11.44;100.00;96299.22;5026136;28;20454;-78
2023/10/28 00:14:12;;;;;;;1.23;0.90;;;10.90;99.90;;;11.45;100.00;96292.94;5027151;28;20486;-78
2023/10/28 00:16:43;;;;;;;1.43;0.90;;;10.90;99.90;;;11.43;100.00;96295.00;5027478;28;20462;-77
2023/10/28 00:19:14;;;;;;;1.13;0.83;;;10.90;99.90;;;11.41;100.00;96299.69;5024933;28;20524;-77
2023/10/28 00:21:45;;;;;;;0.80;0.73;;;10.90;99.90;;;11.45;100.00;96298.16;5025122;28;20476;-78
2023/10/28 00:24:16;;;;;;;4.43;0.90;;;10.90;99.90;;;11.39;100.00;96299.09;5026808;28;20513;-77
2023/10/28 00:26:47;;;;;;;1.97;0.87;;;10.90;99.90;;;11.37;100.00;96305.63;5028447;28;20462;-78
2023/10/28 00:29:18;;;;;;;0.80;0.70;;;10.90;99.90;;;11.37;100.00;96303.00;5026367;28;20469;-78
2023/10/28 00:31:48;;;;;;;1.10;0.80;;;10.90;99.90;;;11.35;100.00;96305.84;5026352;28;20493;-77
2023/10/28 00:34:18;;;;;;;0.80;0.73;;;10.90;99.90;;;11.32;100.00;96314.16;5028911;28;20469;-78
2023/10/28 00:36:49;;;;;;;0.87;0.70;;;10.90;99.90;;;11.24;100.00;96319.78;5027900;28;20937;-78
2023/10/28 00:39:19;;;;;;;0.80;0.70;;;10.80;99.90;;;11.23;100.00;96331.25;5028398;28;20703;-78
2023/10/28 00:41:49;;;;;;;5.97;0.80;;;10.80;99.90;;;11.19;100.00;96331.94;5023200;28;21126;-78
2023/10/28 00:44:21;;;;;;;2.77;1.17;;;10.70;99.90;;;11.20;100.00;96339.59;5026731;28;20503;-78
2023/10/28 00:46:51;;;;;;;1.00;0.80;;;10.70;99.90;;;11.08;100.00;96338.81;5028780;28;20462;-78
2023/10/28 00:49:20;;;;;;;0.80;0.70;;;10.70;99.90;;;11.01;100.00;96349.41;5030843;28;20855;-78
2023/10/28 00:51:52;;;;;;;1.30;0.90;;;10.60;99.90;;;11.03;100.00;96336.09;5030514;28;20466;-78
2023/10/28 00:54:23;;;;;;;0.80;0.70;;;10.60;99.90;;;11.01;100.00;96336.34;5029869;28;20468;-77
2023/10/28 00:56:55;;;;;;;1.17;0.90;;;10.60;99.90;;;10.97;100.00;96342.25;5033009;28;20904;-78
2023/10/28 00:59:27;;;;;;;0.80;0.80;;;10.60;99.90;;;10.99;100.00;96342.81;5030543;28;21359;-78
2023/10/28 01:01:58;;;;;;;1.20;0.70;;;10.60;99.90;;;10.97;100.00;96348.28;5030091;28;20470;-77
2023/10/28 01:04:28;;;;;;;1.10;0.90;;;10.50;99.90;;;10.97;100.00;96352.72;5031002;28;20485;-78
2023/10/28 01:07:00;;;;;;;1.03;0.83;;;10.50;99.90;;;10.95;100.00;96360.00;5027532;28;20515;-77
2023/10/28 01:09:29;;;;;;;2.47;0.80;;;10.50;99.90;;;10.92;100.00;96357.84;5027399;28;20949;-77
2023/10/28 01:11:59;;;;;;;1.27;0.90;;;10.50;99.90;;;10.88;100.00;96359.34;5029962;28;20474;-78
2023/10/28 01:14:29;;;;;;;0.90;0.80;;;10.50;99.90;;;10.88;100.00;96359.34;5030794;28;20558;-77
2023/10/28 01:17:04;;;;;;;1.20;0.90;;;10.50;99.90;;;10.84;100.00;96368.66;5033048;28;20515;-78
2023/10/28 01:19:34;;;;;;;2.00;1.00;;;10.40;99.90;;;10.77;100.00;96360.94;5032292;28;20541;-78
2023/10/28 01:22:06;;;;;;;0.80;0.70;;;10.40;99.90;;;10.78;100.00;96375.59;5029622;28;21017;-78
2023/10/28 01:24:37;;;;;;;1.63;1.10;;;10.40;99.90;;;10.76;100.00;96372.41;5030464;28;20460;-78
2023/10/28 01:27:10;;;;;;;1.00;0.90;;;10.30;99.90;;;10.76;100.00;96376.88;5029542;28;20889;-77
2023/10/28 01:29:40;;;;;;;1.40;0.90;;;10.30;99.90;;;10.79;100.00;96369.38;5028903;28;20821;-78
2023/10/28 01:32:10;;;;;;;0.80;0.70;;;10.30;99.90;;;10.81;100.00;96374.34;5027666;28;20466;-77
2023/10/28 01:34:49;;;;;;;1.83;1.00;;;10.30;99.90;;;10.81;100.00;96380.38;5031239;28;20457;-77
2023/10/28 01:37:20;;;;;;;1.73;1.00;;;10.40;99.90;;;10.83;100.00;96373.09;5031473;28;20548;-77
2023/10/28 01:39:52;;;;;;;2.40;1.07;;;10.40;99.90;;;10.86;100.00;96379.69;5027822;28;20965;-78
2023/10/28 01:42:23;;;;;;;2.03;0.83;;;10.40;99.90;;;10.81;100.00;96380.38;5032556;28;20532;-77
2023/10/28 01:44:52;;;;;;;3.43;1.20;;;10.30;99.90;;;10.85;100.00;96385.94;5029254;28;20477;-77
2023/10/28 01:47:22;;;;;;;1.53;1.03;;;10.40;99.90;;;10.75;100.00;96385.72;5031639;28;20555;-77
2023/10/28 01:49:53;;;;;;;3.07;1.50;;;10.20;99.90;;;10.82;100.00;96386.41;5030361;28;20842;-77
2023/10/28 01:52:25;;;;;;;3.83;1.03;;;10.30;99.90;;;10.86;100.00;96379.69;5028115;28;20468;-77
2023/10/28 01:54:55;;;;;;;2.60;1.10;;;10.30;99.90;;;10.80;100.00;96388.44;5029342;28;21262;-77
2023/10/28 01:57:25;;;;;;;5.97;1.37;;;10.30;99.90;;;10.78;100.00;96382.66;5027754;28;20535;-77
2023/10/28 01:59:55;;;;;;;1.90;1.03;;;10.40;99.90;;;10.81;100.00;96379.56;5030007;28;20515;-78
2023/10/28 02:02:25;;;;;;;1.57;1.00;;;10.30;99.90;;;10.86;100.00;96382.31;5025970;28;20466;-78
2023/10/28 02:04:55;;;;;;;4.13;1.40;;;10.30;99.90;;;10.85;100.00;96381.50;5030743;28;20497;-77
2023/10/28 02:07:27;;;;;;;2.30;1.07;;;10.30;99.90;;;10.80;100.00;96383.22;5027746;28;20457;-77
2023/10/28 02:09:57;;;;;;;2.60;1.00;;;10.30;99.90;;;10.80;100.00;96377.97;5029975;28;20459;-77
2023/10/28 02:12:27;;;;;;;3.33;1.00;;;10.30;99.90;;;10.82;100.00;96378.56;5026724;28;20466;-77
2023/10/28 02:14:58;;;;;;;6.47;1.10;;;10.30;99.90;;;10.82;100.00;96381.19;5030733;28;20951;-77
2023/10/28 02:17:28;;;;;;;4.30;1.20;;;10.30;99.90;;;10.83;100.00;96383.53;5029223;28;21460;-78
2023/10/28 02:20:00;;;;;;;2.50;1.10;;;10.30;99.90;;;10.84;100.00;96385.16;5029672;28;20493;-78
2023/10/28 02:22:32;;;;;;;5.03;1.20;;;10.30;99.90;;;10.85;100.00;96385.94;5026719;28;20473;-78
2023/10/28 02:25:01;;;;;;;18.63;1.20;;;10.30;99.90;;;10.83;100.00;96388.00;5030713;28;20458;-78
2023/10/28 02:27:32;;;;;;;7.63;1.47;;;10.30;99.90;;;10.81;100.00;96374.34;5028890;28;20461;-78
2023/10/28 02:30:01;;;;;;;3.70;1.30;;;10.20;99.90;;;10.82;100.00;96383.78;5028229;28;20462;-78
2023/10/28 02:32:30;;;;;;;3.53;1.30;;;10.30;99.90;;;10.80;100.00;96385.81;5028542;28;20478;-77
2023/10/28 02:35:00;;;;;;;1.30;1.10;;;10.20;99.90;;;10.81;100.00;96380.38;5028489;28;21657;-78
2023/10/28 02:37:32;;;;;;;1.77;1.00;;;10.30;99.90;;;10.83;100.00;96385.38;5031230;28;20508;-78
2023/10/28 02:40:04;;;;;;;4.47;1.37;;;10.20;99.90;;;10.79;100.00;96386.88;5030336;28;20523;-78
2023/10/28 02:42:36;;;;;;;2.17;1.20;;;10.20;99.90;;;10.80;100.00;96375.38;5029468;28;20492;-78
2023/10/28 02:45:09;;;;;;;6.70;1.30;;;10.20;99.90;;;10.80;100.00;96376.16;5028194;28;20477;-78
2023/10/28 02:47:46;;;;;;;3.27;1.03;;;10.20;99.90;;;10.85;100.00;96385.94;5027918;28;20953;-78
2023/10/28 02:50:18;;;;;;;2.93;0.80;;;10.30;99.90;;;10.86;100.00;96382.31;5026841;28;20536;-78
2023/10/28 02:52:50;;;;;;;2.50;1.10;;;10.20;99.90;;;10.80;100.00;96383.22;5026039;28;20458;-78
2023/10/28 02:55:21;;;;;;;2.40;1.20;;;10.20;99.90;;;10.78;100.00;96385.28;5026334;28;20466;-78
2023/10/28 02:57:52;;;;;;;3.33;1.00;;;10.30;99.90;;;10.79;100.00;96381.63;5027271;28;20516;-77
2023/10/28 03:00:22;;;;;;;2.27;1.10;;;10.30;99.90;;;10.82;100.00;96383.78;5026573;28;21234;-78
2023/10/28 03:02:55;;;;;;;1.93;1.00;;;10.20;99.90;;;10.83;100.00;96383.53;5026590;28;20478;-78
2023/10/28 03:05:26;;;;;;;3.57;1.20;;;10.20;99.90;;;10.86;100.00;96382.31;5029869;28;20480;-78
2023/10/28 03:07:57;;;;;;;1.70;0.90;;;10.30;99.90;;;10.80;100.00;96383.22;5029060;28;20469;-77
2023/10/28 03:10:26;;;;;;;1.67;1.30;;;10.30;99.90;;;10.84;100.00;96385.16;5027537;28;21279;-78
2023/10/28 03:12:56;;;;;;;2.63;1.37;;;10.20;99.90;;;10.85;100.00;96381.50;5026676;28;20466;-78
2023/10/28 03:15:27;;;;;;;1.30;0.87;;;10.20;99.90;;;10.90;100.00;96378.19;5028527;28;20528;-77
2023/10/28 03:17:56;;;;;;;2.30;1.57;;;10.20;99.90;;;10.91;100.00;96379.78;5027419;28;20500;-77
2023/10/28 03:20:27;;;;;;;1.70;1.20;;;10.20;99.90;;;10.89;100.00;96377.41;5029112;28;20462;-78
2023/10/28 03:22:58;;;;;;;2.53;1.20;;;10.30;99.90;;;10.88;100.00;96380.25;5025857;28;20515;-77
2023/10/28 03:25:30;;;;;;;28.30;12.83;;;10.30;99.90;;;10.88;100.00;96380.25;5026430;28;20828;-75
2023/10/28 03:28:00;;;;;;;4.67;2.43;;;10.30;99.90;;;10.88;100.00;96375.81;5028491;28;20522;-78
2023/10/28 03:30:29;;;;;;;5.00;1.77;;;10.30;99.90;;;10.87;100.00;96378.66;5027980;28;20453;-77
2023/10/28 03:33:00;;;;;;;5.33;1.70;;;10.40;99.90;;;10.84;100.00;96372.06;5026337;28;20464;-77
2023/10/28 03:35:30;;;;;;;3.80;1.40;;;10.40;99.90;;;10.89;100.00;96376.63;5026712;28;20489;-77
2023/10/28 03:38:02;;;;;;;3.80;1.50;;;10.30;99.90;;;10.93;100.00;96372.53;5027567;28;20489;-78
2023/10/28 03:40:32;;;;;;;2.20;1.40;;;10.30;99.90;;;10.88;100.00;96370.59;5023973;28;20470;-78
2023/10/28 03:43:02;;;;;;;1.60;1.50;;;10.40;99.90;;;10.93;100.00;96372.53;5024316;28;20466;-78
2023/10/28 03:45:32;;;;;;;4.40;1.50;;;10.30;99.90;;;10.94;100.00;96367.03;5026498;28;20462;-77
2023/10/28 03:48:03;;;;;;;6.17;2.27;;;10.30;99.90;;;10.94;100.00;96374.09;5023244;28;20579;-78
2023/10/28 03:50:33;;;;;;;1.30;1.20;;;10.40;99.90;;;10.93;100.00;96367.28;5026444;28;20462;-78
2023/10/28 03:53:04;;;;;;;2.50;1.33;;;10.40;99.90;;;10.95;100.00;96373.06;5027458;28;20528;-78
2023/10/28 03:55:35;;;;;;;7.80;2.10;;;10.30;99.90;;;10.98;100.00;96373.41;5026630;28;21544;-76
2023/10/28 03:58:05;;;;;;;10.63;5.67;;;10.30;99.90;;;10.96;100.00;96367.63;5024385;28;20493;-78
2023/10/28 04:00:36;;;;;;;3.00;1.70;;;10.40;99.90;;;10.99;100.00;96368.97;5026294;28;20469;-78
2023/10/28 04:03:05;;;;;;;5.80;1.23;;;10.30;99.90;;;11.02;100.00;96366.69;5027314;28;20492;-78
2023/10/28 04:05:35;;;;;;;4.70;1.80;;;10.30;99.90;;;11.04;100.00;96363.84;5027394;28;20542;-78
2023/10/28 04:08:07;;;;;;;8.80;1.53;;;10.40;99.90;;;11.05;100.00;96368.84;5027891;28;21087;-78
2023/10/28 04:10:37;;;;;;;4.20;1.47;;;10.40;99.90;;;11.03;100.00;96373.53;5027805;28;20522;-77
2023/10/28 04:13:07;;;;;;;2.07;1.00;;;10.40;99.90;;;11.01;100.00;96364.31;5028223;28;20474;-79
2023/10/28 04:15:38;;;;;;;2.20;1.40;;;10.40;99.90;;;11.03;100.00;96367.50;5028452;28;20476;-78
2023/10/28 04:18:07;;;;;;;1.47;1.20;;;10.50;99.90;;;11.03;100.00;96362.28;5027333;28;21025;-77
2023/10/28 04:20:39;;;;;;;3.87;1.70;;;10.40;99.90;;;11.05;100.00;96362.81;5027964;28;20529;-77
2023/10/28 04:23:11;;;;;;;3.47;1.40;;;10.40;99.90;;;11.02;100.00;96355.44;5032135;28;20476;-78
2023/10/28 04:25:41;;;;;;;2.37;1.67;;;10.50;99.90;;;11.02;100.00;96361.47;5032099;28;20461;-77
2023/10/28 04:28:10;;;;;;;4.77;2.00;;;10.50;99.90;;;11.04;100.00;96354.16;5027455;28;20576;-76
2023/10/28 04:30:40;;;;;;;8.50;2.03;;;10.50;99.90;;;11.04;100.00;96364.63;5027537;28;20501;-79
2023/10/28 04:33:12;;;;;;;8.17;2.00;;;10.50;99.90;;;11.08;100.00;96357.13;5032137;28;20549;-79
2023/10/28 04:35:43;;;;;;;3.63;2.07;;;10.60;99.90;;;11.10;100.00;96363.72;5029208;28;20470;-78
2023/10/28 04:38:15;;;;;;;8.83;2.40;;;10.50;99.90;;;11.07;100.00;96366.03;5028611;28;20485;-78
2023/10/28 04:40:44;;;;;;;5.70;1.93;;;10.60;99.90;;;11.07;100.00;96366.03;5029785;28;20488;-77
2023/10/28 04:43:13;;;;;;;17.43;5.77;;;10.50;99.90;;;11.07;100.00;96361.56;5028401;28;20477;-78
2023/10/28 04:45:45;;;;;;;16.00;1.47;;;10.60;99.90;;;11.10;100.00;96361.13;5029451;28;20515;-78
2023/10/28 04:48:14;;;;;;;11.40;3.90;;;10.60;99.90;;;11.08;100.00;96364.97;5029093;28;20466;-79
2023/10/28 04:50:47;;;;;;;11.57;2.30;;;10.60;99.90;;;11.11;100.00;96367.13;5031838;28;20544;-80
2023/10/28 04:53:18;;;;;;;6.30;2.13;;;10.60;99.90;;;11.09;100.00;96369.97;5033814;28;20548;-80
2023/10/28 04:55:48;;;;;;;4.40;2.03;;;10.60;99.90;;;11.10;100.00;96374.19;5031733;28;20462;-80
2023/10/28 04:58:19;;;;;;;6.43;1.97;;;10.60;99.90;;;11.13;100.00;96369.50;5031449;28;20546;-80
2023/10/28 05:00:49;;;;;;;4.13;2.03;;;10.50;99.90;;;11.15;100.00;96368.25;5031085;28;20537;-80
2023/10/28 05:03:19;;;;;;;6.23;1.73;;;10.50;99.90;;;11.16;100.00;96369.06;5033434;28;20466;-80
2023/10/28 05:05:50;;;;;;;8.97;1.90;;;10.50;99.90;;;11.16;100.00;96364.63;5031500;28;20461;-80
2023/10/28 05:08:22;;;;;;;6.63;2.20;;;10.60;99.90;;;11.16;100.00;96362.00;5032173;28;20465;-80
2023/10/28 05:10:53;;;;;;;5.20;2.10;;;10.60;99.90;;;11.15;100.00;96352.56;5030298;28;20497;-80
2023/10/28 05:13:23;;;;;;;4.10;1.70;;;10.60;99.90;;;11.16;100.00;96356.78;5032308;28;20466;-80
2023/10/28 05:15:53;;;;;;;3.10;1.50;;;10.50;99.90;;;11.11;100.00;96359.28;5032272;28;20462;-80
2023/10/28 05:18:24;;;;;;;4.13;2.07;;;10.60;99.90;;;11.15;100.00;96352.56;5030421;28;20501;-80
2023/10/28 05:20:55;;;;;;;3.30;1.60;;;10.60;99.90;;;11.15;100.00;96357.78;5030693;28;20946;-80
2023/10/28 05:23:27;;;;;;;6.63;2.10;;;10.60;99.90;;;11.15;100.00;96365.63;5031322;28;20484;-80
2023/10/28 05:25:58;;;;;;;3.43;1.60;;;10.50;99.90;;;11.13;100.00;96367.69;5030236;28;20580;-80
2023/10/28 05:28:28;;;;;;;5.00;1.50;;;10.50;99.90;;;11.16;100.00;96363.81;5029124;28;20462;-81
2023/10/28 05:30:59;;;;;;;4.03;2.17;;;10.60;99.90;;;11.15;100.00;96359.59;5030473;28;20492;-80
2023/10/28 05:33:29;;;;;;;5.03;2.77;;;10.60;99.90;;;11.18;100.00;96367.78;5032245;28;20465;-80
2023/10/28 05:35:59;;;;;;;8.03;2.20;;;10.50;99.90;;;11.20;100.00;96365.75;5029631;28;20469;-80
2023/10/28 05:38:31;;;;;;;2.50;1.50;;;10.60;99.90;;;11.22;100.00;96365.50;5031196;28;20498;-80
2023/10/28 05:41:01;;;;;;;4.80;1.80;;;10.60;99.90;;;11.19;100.00;96372.00;5031381;28;20512;-80
2023/10/28 05:43:33;;;;;;;4.40;1.80;;;10.60;99.90;;;11.20;100.00;96376.22;5029636;28;20462;-80
2023/10/28 05:46:03;;;;;;;2.90;1.50;;;10.70;99.90;;;11.22;100.00;96379.38;5030379;28;20500;-80
2023/10/28 05:48:34;;;;;;;4.00;1.50;;;10.60;99.90;;;11.20;100.00;96373.59;5030267;28;20474;-80
2023/10/28 05:51:05;;;;;;;7.50;2.33;;;10.60;99.90;;;11.17;100.00;96378.50;5029105;28;20462;-80
2023/10/28 05:53:37;;;;;;;9.23;1.97;;;10.50;99.90;;;11.19;100.00;96382.47;5032630;28;20468;-80
2023/10/28 05:56:08;;;;;;;2.50;1.67;;;10.60;99.90;;;11.16;100.00;96372.47;5034618;28;20466;-80
2023/10/28 05:58:38;;;;;;;4.23;1.93;;;10.70;99.90;;;11.17;100.00;96379.28;5029852;28;21019;-79
2023/10/28 06:01:08;;;;;;;7.87;2.10;;;10.70;99.90;;;11.20;100.00;96381.44;5032256;28;20466;-79
2023/10/28 06:03:38;;;;;;;7.43;1.70;;;10.60;99.90;;;11.17;100.00;96388.97;5031868;28;20828;-79
2023/10/28 06:06:09;;;;;;;4.73;1.63;;;10.60;99.90;;;11.19;100.00;96382.47;5030945;28;20470;-80
2023/10/28 06:08:41;;;;;;;5.20;1.77;;;10.60;99.90;;;11.20;100.00;96376.22;5031621;28;20472;-80
2023/10/28 06:11:10;;;;;;;9.20;1.80;;;10.60;99.90;;;11.19;100.00;96382.47;5031831;28;20453;-80
2023/10/28 06:13:40;;;;;;;4.77;1.30;;;10.70;99.90;;;11.19;100.00;96384.28;5033969;28;20568;-80
2023/10/28 06:16:11;;;;;;;6.77;1.80;;;10.70;99.90;;;11.15;100.00;96397.03;5033346;28;20493;-80
2023/10/28 06:18:41;;;;;;;8.27;2.20;;;10.70;99.90;;;11.12;100.00;96389.66;5033346;28;20498;-80
2023/10/28 06:21:11;;;;;;;4.80;1.87;;;10.60;99.90;;;11.13;100.00;96399.09;5032054;28;20462;-80
2023/10/28 06:23:42;;;;;;;8.63;2.20;;;10.70;99.90;;;11.14;100.00;96405.13;5030284;28;20971;-80
2023/10/28 06:26:12;;;;;;;11.50;2.20;;;10.70;99.90;;;11.16;100.00;96405.66;5030107;28;20454;-80
2023/10/28 06:28:44;;;;;;;7.73;2.00;;;10.70;99.90;;;11.17;100.00;96408.06;5031201;28;20463;-80
2023/10/28 06:31:15;;;;;;;4.80;2.10;;;10.60;99.90;;;11.19;100.00;96413.84;5028816;28;20885;-80
2023/10/28 06:33:45;;;;;;;3.83;1.80;;;10.60;99.90;;;11.17;100.00;96415.91;5031141;28;20882;-80
2023/10/28 06:36:15;;;;;;;6.30;1.93;;;10.60;99.90;;;11.18;100.00;96422.72;5029002;28;20846;-80
2023/10/28 06:38:48;;;;;;;6.27;2.17;;;10.60;99.90;;;11.17;100.00;96412.50;5029252;28;20959;-81
2023/10/28 06:41:18;;;;;;;5.70;2.10;;;10.60;99.90;;;11.16;100.00;96424.78;5029148;28;20479;-80
2023/10/28 06:43:48;;;;;;;5.70;2.10;;;10.70;99.90;;;11.15;100.00;96427.63;5028665;28;20831;-80
2023/10/28 06:46:20;;;;;;;7.40;2.10;;;10.50;99.90;;;11.10;100.00;96421.28;5030910;28;20464;-81
2023/10/28 06:48:50;;;;;;;3.40;1.87;;;10.60;99.90;;;11.11;100.00;96422.84;5029881;28;20880;-80
2023/10/28 06:51:21;;;;;;;4.77;2.07;;;10.60;99.90;;;11.13;100.00;96430.47;5029552;28;20466;-80
2023/10/28 06:53:54;;;;;;;3.73;1.93;;;10.50;99.90;;;11.13;100.00;96433.09;5031892;28;20963;-80
2023/10/28 06:56:25;;;;;;;3.33;1.60;;;10.60;99.90;;;11.14;100.00;96426.84;5030564;28;20488;-80
2023/10/28 06:58:54;;;;;;;8.23;1.97;;;10.60;99.90;;;11.18;100.00;96438.41;5030232;28;21055;-80
2023/10/28 07:01:24;;;;;;;4.43;1.70;;;10.70;99.90;;;11.15;100.00;96438.09;5031613;28;20454;-80
2023/10/28 07:03:55;;;;;;;8.10;1.50;;;10.60;99.90;;;11.15;100.00;96443.31;5030865;28;20473;-80
2023/10/28 07:06:25;;;;;;;7.30;2.67;;;10.50;99.90;;;11.14;100.00;96437.31;5032192;28;20470;-80
2023/10/28 07:08:57;;;;;;;9.60;1.80;;;10.50;99.90;;;11.15;100.00;96438.88;5032854;28;20544;-80
2023/10/28 07:11:41;;;;;;;4.13;1.10;;;10.60;99.90;;;11.12;100.00;96444.56;5031541;28;20499;-80
2023/10/28 07:14:12;;;;;;;3.57;1.43;;;10.60;99.90;;;11.16;100.00;96450.94;5032749;28;20576;-80
2023/10/28 07:16:42;;;;;;;8.83;1.50;;;10.60;99.90;;;11.16;100.00;96455.38;5030354;28;20553;-80
2023/10/28 07:19:12;;;;;;;4.23;2.37;;;10.70;99.90;;;11.14;100.00;96454.81;5031497;28;20493;-80
2023/10/28 07:21:42;;;;;;;3.47;1.30;;;10.70;99.90;;;11.13;100.00;96451.41;5031816;28;20466;-81
2023/10/28 07:24:13;;;;;;;3.83;1.40;;;10.60;99.90;;;11.20;100.00;96467.78;5029366;28;20470;-80
2023/10/28 07:26:43;;;;;;;2.93;1.80;;;10.60;99.90;;;11.16;100.00;96471.88;5028859;28;20965;-80
2023/10/28 07:29:13;;;;;;;2.40;1.60;;;10.60;99.90;;;11.20;100.00;96470.41;5031081;28;20549;-80
2023/10/28 07:31:43;;;;;;;3.17;1.90;;;10.60;99.90;;;11.21;100.00;96474.59;5026482;28;20531;-80
2023/10/28 07:34:12;;;;;;;2.13;1.30;;;10.60;99.90;;;11.24;100.00;96479.38;5029059;28;20973;-80
2023/10/28 07:36:42;;;;;;;4.40;1.50;;;10.70;99.90;;;11.21;100.00;96473.81;5030092;28;20470;-80
2023/10/28 07:39:15;;;;;;;4.37;1.40;;;10.70;99.90;;;11.20;100.00;96487.91;5029611;28;20498;-80
2023/10/28 07:41:47;;;;;;;4.03;1.47;;;10.60;99.90;;;11.18;100.00;96495.97;5026916;28;20469;-80
2023/10/28 07:44:16;;;;;;;4.80;1.70;;;10.50;99.90;;;11.22;100.00;96493.69;5029632;28;20462;-80
2023/10/28 07:46:46;;;;;;;4.70;1.77;;;10.60;99.90;;;11.23;100.00;96490.88;5027910;28;20476;-80
2023/10/28 07:49:15;;;;;;;3.40;1.83;;;10.70;99.90;;;11.20;100.00;96493.94;5032789;28;20462;-80
2023/10/28 07:51:45;;;;;;;7.17;1.63;;;10.70;99.90;;;11.23;100.00;96498.72;5027755;28;20465;-80
2023/10/28 07:54:16;;;;;;;4.00;1.80;;;10.70;99.90;;;11.25;100.00;96482.78;5032271;28;20557;-80
2023/10/28 07:56:46;;;;;;;5.23;1.67;;;10.70;99.90;;;11.27;100.00;96494.63;5031009;28;20550;-80
2023/10/28 07:59:16;;;;;;;6.30;1.67;;;10.60;99.90;;;11.26;100.00;96493.03;5028550;28;20477;-80
2023/10/28 08:01:46;;;;;;;10.13;2.00;;;10.70;99.90;;;11.27;100.00;96493.81;5029298;28;20461;-80
2023/10/28 08:04:16;;;;;;;10.17;2.00;;;10.70;99.90;;;11.27;100.00;96497.25;5029527;28;20921;-80
2023/10/28 08:06:47;;;;;;;3.27;1.80;;;10.80;99.90;;;11.32;100.00;96510.41;5028854;28;20461;-80
2023/10/28 08:09:17;;;;;;;4.07;2.00;;;10.70;99.90;;;11.32;100.00;96505.19;5032435;28;20839;-81
2023/10/28 08:11:47;;;;;;;10.57;2.00;;;10.80;99.90;;;11.29;100.00;96502.22;5031549;28;20458;-80
2023/10/28 08:14:16;;;;;;;5.50;1.57;;;10.80;99.90;;;11.31;100.00;96503.63;5029970;28;20493;-80
2023/10/28 08:16:47;;;;;;;5.43;2.23;;;10.80;99.90;;;11.33;100.00;96500.75;5030704;28;20515;-80
2023/10/28 08:19:17;;;;;;;12.13;2.13;;;10.80;99.90;;;11.33;100.00;96512.00;5032763;28;20508;-81
2023/10/28 08:21:47;;;;;;;6.67;2.00;;;10.80;99.90;;;11.34;100.00;96512.81;5029015;28;20554;-81
2023/10/28 08:24:20;;;;;;;6.00;2.13;;;10.80;99.90;;;11.38;100.00;96516.56;5028584;28;20550;-81
2023/10/28 08:26:50;;;;;;;7.60;2.30;;;10.90;99.90;;;11.42;100.00;96523.72;5028477;28;20453;-81
2023/10/28 08:29:20;;;;;;;7.53;1.80;;;10.90;99.90;;;11.42;100.00;96523.72;5028263;28;20474;-81
2023/10/28 08:31:49;;;;;;;5.80;1.60;;;10.90;99.90;;;11.39;100.00;96518.94;5027172;28;20944;-81
2023/10/28 08:34:19;;;;;;;10.73;1.97;;;11.00;99.90;;;11.42;100.00;96525.56;5028910;28;20988;-81
2023/10/28 08:36:49;;;;;;;6.83;1.63;;;10.90;99.90;;;11.43;100.00;96517.47;5028222;28;20473;-80
2023/10/28 08:39:23;;;;;;;14.87;2.60;;;11.00;99.90;;;11.47;100.00;96530.88;5029022;28;20481;-81
2023/10/28 08:41:56;;;;;;;4.53;1.80;;;10.90;99.90;;;11.50;100.00;96539.06;5025960;28;20477;-81
2023/10/28 08:44:28;;;;;;;6.70;1.90;;;10.90;99.90;;;11.51;100.00;96537.25;5028796;28;20557;-81
2023/10/28 08:46:59;;;;;;;3.80;1.73;;;11.00;99.90;;;11.52;100.00;96539.63;5029017;28;20458;-81
2023/10/28 08:49:29;;;;;;;6.63;2.00;;;11.10;99.90;;;11.56;100.00;96532.13;5030090;28;20469;-81
2023/10/28 08:52:04;;;;;;;8.43;1.97;;;11.10;99.90;;;11.58;100.00;96537.94;5028821;28;20876;-81
2023/10/28 08:54:38;;;;;;;13.63;2.30;;;11.10;99.90;;;11.54;100.00;96526.31;5030798;28;20524;-81
2023/10/28 08:57:09;;;;;;;6.53;2.13;;;11.00;99.90;;;11.59;100.00;96529.84;5027392;28;20489;-81
2023/10/28 08:59:38;;;;;;;7.00;1.63;;;11.10;99.90;;;11.59;100.00;96523.81;5026678;28;20485;-81
2023/10/28 09:02:13;;;;;;;9.40;1.70;;;11.20;99.90;;;11.61;100.00;96534.84;5027996;28;20474;-81
2023/10/28 09:04:44;;;;;;;7.13;2.17;;;11.10;99.90;;;11.63;100.00;96534.63;5027559;28;20491;-81
2023/10/28 09:07:14;;;;;;;5.40;1.90;;;11.20;99.90;;;11.61;100.00;96543.50;5028734;28;20975;-81
2023/10/28 09:09:45;;;;;;;3.87;2.00;;;11.10;99.90;;;11.64;100.00;96542.25;5030977;28;20547;-81
2023/10/28 09:12:17;;;;;;;12.30;2.00;;;11.00;99.90;;;11.71;100.00;96539.53;5033291;28;21883;-80
2023/10/28 09:14:47;;;;;;;7.70;1.50;;;11.20;99.90;;;11.73;100.00;96545.34;5032755;28;20990;-81
2023/10/28 09:17:20;;;;;;;6.77;1.70;;;11.30;99.90;;;11.78;100.00;96548.06;5033338;28;20469;-81
2023/10/28 09:19:52;;;;;;;6.87;1.80;;;11.30;99.90;;;11.79;100.00;96545.22;5033367;28;20504;-81
2023/10/28 09:22:21;;;;;;;5.20;2.13;;;11.30;99.90;;;11.80;100.00;96549.41;5032137;28;20481;-80
2023/10/28 09:24:54;;;;;;;11.53;1.67;;;11.30;99.90;;;11.80;100.00;96564.34;5032770;28;20896;-80
2023/10/28 09:27:24;;;;;;;4.03;1.70;;;11.40;99.90;;;11.83;100.00;96564.69;5032117;28;20693;-81
2023/10/28 09:30:06;;;;;;;5.07;1.87;;;11.40;99.90;;;11.80;100.00;96564.34;5030473;28;20473;-81
2023/10/28 09:32:37;;;;;;;5.23;2.00;;;11.30;99.90;;;11.78;100.00;96559.31;5031450;28;20468;-81
2023/10/28 09:35:11;;;;;;;5.70;1.57;;;11.30;99.90;;;11.79;100.00;96566.16;5030565;28;20478;-81
2023/10/28 09:37:42;;;;;;;9.93;2.10;;;11.20;99.90;;;11.83;100.00;96562.06;5029049;28;20452;-81
2023/10/28 09:40:15;;;;;;;7.10;2.20;;;11.20;99.90;;;11.86;100.00;96566.84;5032092;28;20476;-81
2023/10/28 09:42:48;;;;;;;7.70;1.80;;;11.30;99.90;;;11.91;100.00;96566.13;5032235;28;20465;-81
2023/10/28 09:45:20;;;;;;;2.80;1.60;;;11.40;99.90;;;11.96;100.00;96569.66;5033431;28;20458;-81
2023/10/28 09:47:56;;;;;;;8.13;2.03;;;11.40;99.90;;;11.99;100.00;96563.16;5032606;28;20458;-80
2023/10/28 09:50:32;;;;;;;8.13;1.80;;;11.40;99.90;;;11.98;100.00;96569.41;5032977;28;20557;-81
2023/10/28 09:53:04;;;;;;;5.20;2.17;;;11.50;99.90;;;12.02;100.00;96570.53;5031218;28;20532;-80
2023/10/28 09:55:39;;;;;;;16.83;2.20;;;11.50;99.90;;;12.04;100.00;96569.28;5032523;28;20866;-81
2023/10/28 09:58:19;;;;;;;15.53;2.40;;;11.50;99.90;;;12.06;100.00;96561.19;5030662;28;20956;-81
2023/10/28 10:00:51;;;;;;;12.87;2.40;;;11.50;99.90;;;12.03;100.00;96569.53;5032251;28;20492;-81
2023/10/28 10:03:43;;;;;;;23.57;2.17;;;11.50;99.90;;;12.07;100.00;96574.06;5031044;28;20957;-81
2023/10/28 10:06:12;;;;;;;13.20;2.70;;;11.60;99.90;;;12.08;100.00;96573.03;5030783;28;20845;-82
2023/10/28 10:08:50;;;;;;;7.70;2.27;;;11.50;99.90;;;12.10;100.00;96578.03;5031386;28;20475;-81
2023/10/28 10:11:24;;;;;;;15.03;3.07;;;11.60;99.90;;;12.14;100.00;96573.13;5030950;28;20466;-81
2023/10/28 10:13:55;;;;;;;7.13;2.10;;;11.70;99.90;;;12.17;100.00;96581.31;5030626;28;20524;-81
2023/10/28 10:16:46;;;;;;;9.50;2.13;;;11.80;99.90;;;12.13;100.00;96577.56;5029891;28;20527;-81
2023/10/28 10:19:24;;;;;;;9.30;2.47;;;11.60;99.90;;;12.19;100.00;96581.88;5028811;28;20980;-81
2023/10/28 10:21:54;;;;;;;6.60;1.80;;;11.60;99.90;;;12.15;100.00;96572.88;5029407;28;20502;-81
2023/10/28 10:24:24;;;;;;;10.90;1.97;;;11.70;99.90;;;12.21;100.00;96586.91;5031446;28;20556;-81
2023/10/28 10:27:00;;;;;;;10.40;2.23;;;11.70;99.90;;;12.20;100.00;96575.63;5031163;28;20473;-81
2023/10/28 10:29:42;;;;;;;7.20;1.80;;;11.70;99.90;;;12.24;100.00;96579.38;5030588;28;20469;-81